Time;durP1;ratioP1;P1;durP2;ratioP2;P2;SDS_P1;SDS_P2;PMS_P1;PMS_P2;Temp;Humidity;BMP_temperature;BMP_pressure;BME280_temperature;BME280_humidity;BME280_pressure;Samples;Min_cycle;Max_cycle;Signal;HPM_P1;HPM_P2
2023/05/31 00:01:29;;;;;;;8.55;3.33;;;14.50;72.20;;;;;;5095904;28;20036;-73
2023/05/31 00:03:54;;;;;;;9.73;3.25;;;14.50;72.20;;;;;;5094986;28;20401;-72
2023/05/31 00:06:20;;;;;;;10.20;3.20;;;14.50;71.80;;;;;;5076710;28;20036;-72
2023/05/31 00:08:45;;;;;;;7.72;3.38;;;14.40;72.10;;;;;;5086497;28;20433;-73
2023/05/31 00:11:11;;;;;;;6.30;2.80;;;14.40;71.70;;;;;;5094820;28;20024;-72
2023/05/31 00:13:38;;;;;;;11.23;2.97;;;14.40;71.90;;;;;;5095587;28;20375;-72
2023/05/31 00:16:05;;;;;;;6.65;2.97;;;14.30;71.50;;;;;;5095731;28;20012;-74
2023/05/31 00:18:30;;;;;;;9.48;2.80;;;14.30;71.60;;;;;;5095655;28;20035;-74
2023/05/31 00:20:56;;;;;;;7.95;3.00;;;14.30;71.20;;;;;;5094116;28;20028;-73
2023/05/31 00:23:22;;;;;;;9.63;3.17;;;14.40;70.90;;;;;;5073729;28;20059;-73
2023/05/31 00:25:47;;;;;;;11.13;3.60;;;14.40;70.80;;;;;;5090604;28;20115;-73
2023/05/31 00:28:13;;;;;;;9.55;3.15;;;14.30;71.20;;;;;;5087641;28;20025;-73
2023/05/31 00:30:38;;;;;;;11.35;3.08;;;14.30;71.00;;;;;;5080150;28;20095;-73
2023/05/31 00:33:04;;;;;;;7.57;3.17;;;14.30;70.90;;;;;;5084271;28;20028;-73
2023/05/31 00:35:30;;;;;;;7.40;2.95;;;14.30;70.60;;;;;;5079201;28;20051;-73
2023/05/31 00:37:55;;;;;;;12.02;3.80;;;14.20;70.60;;;;;;5097444;28;20044;-73
2023/05/31 00:40:21;;;;;;;10.63;3.30;;;14.20;70.50;;;;;;5082409;28;20417;-73
2023/05/31 00:42:47;;;;;;;8.40;3.10;;;14.20;70.60;;;;;;5097029;28;20378;-73
2023/05/31 00:45:12;;;;;;;11.02;3.78;;;14.20;70.60;;;;;;5095851;28;21096;-73
2023/05/31 00:47:38;;;;;;;7.35;2.97;;;14.20;70.60;;;;;;5092499;28;20789;-73
2023/05/31 00:50:04;;;;;;;10.32;3.55;;;14.20;70.60;;;;;;5095993;28;20024;-73
2023/05/31 00:52:31;;;;;;;9.35;3.00;;;14.20;70.90;;;;;;5098137;28;20024;-73
2023/05/31 00:54:57;;;;;;;10.32;3.25;;;14.20;70.70;;;;;;5096847;28;20102;-73
2023/05/31 00:57:23;;;;;;;9.98;3.53;;;14.10;71.00;;;;;;5098993;28;20104;-74
2023/05/31 00:59:49;;;;;;;8.88;3.20;;;14.00;71.40;;;;;;5081740;28;20381;-73
2023/05/31 01:02:18;;;;;;;7.78;3.63;;;13.90;71.50;;;;;;5080305;28;20043;-73
2023/05/31 01:04:44;;;;;;;6.43;3.20;;;13.90;71.40;;;;;;5098946;28;20024;-73
2023/05/31 01:07:09;;;;;;;7.50;3.25;;;14.00;71.30;;;;;;5072961;28;20444;-73
2023/05/31 01:09:37;;;;;;;11.20;3.65;;;13.90;72.00;;;;;;5077398;28;20027;-73
2023/05/31 01:12:06;;;;;;;7.90;3.00;;;13.80;71.90;;;;;;5078922;28;20045;-73
2023/05/31 01:14:50;;;;;;;8.82;3.10;;;13.80;71.70;;;;;;5060883;28;20020;-73
2023/05/31 01:17:15;;;;;;;8.38;2.90;;;13.80;72.20;;;;;;5078566;28;20150;-73
2023/05/31 01:19:48;;;;;;;8.38;3.50;;;13.60;72.50;;;;;;5069470;28;20473;-73
2023/05/31 01:22:30;;;;;;;6.60;3.20;;;13.60;72.40;;;;;;5097603;28;20032;-73
2023/05/31 01:25:01;;;;;;;7.18;3.20;;;13.50;72.80;;;;;;5097476;28;20028;-73
2023/05/31 01:27:28;;;;;;;8.23;3.00;;;13.40;73.20;;;;;;5097625;28;20020;-73
2023/05/31 01:29:56;;;;;;;14.38;3.03;;;13.30;73.60;;;;;;5098430;28;20345;-73
2023/05/31 01:32:24;;;;;;;5.93;3.40;;;13.30;73.80;;;;;;5086575;28;20087;-73
2023/05/31 01:34:50;;;;;;;9.15;3.75;;;13.30;73.80;;;;;;5098186;28;20056;-73
2023/05/31 01:37:15;;;;;;;6.65;3.10;;;13.30;73.60;;;;;;5096814;28;20079;-73
2023/05/31 01:39:42;;;;;;;7.68;3.45;;;13.30;73.90;;;;;;5097076;28;20409;-74
2023/05/31 01:42:09;;;;;;;6.55;3.03;;;13.20;74.30;;;;;;5098182;28;20031;-73
2023/05/31 01:44:37;;;;;;;8.80;3.40;;;13.20;74.10;;;;;;5097384;28;20024;-72
2023/05/31 01:47:03;;;;;;;7.38;3.05;;;13.20;73.90;;;;;;5095178;28;20036;-72
2023/05/31 01:49:29;;;;;;;11.18;3.47;;;13.20;74.00;;;;;;5096286;28;20028;-73
2023/05/31 01:51:56;;;;;;;7.75;2.95;;;13.10;74.30;;;;;;5095186;28;20023;-72
2023/05/31 01:54:22;;;;;;;9.40;3.30;;;13.10;74.10;;;;;;5095274;28;20035;-72
2023/05/31 01:56:48;;;;;;;6.88;3.03;;;13.10;74.40;;;;;;5078470;28;20028;-73
2023/05/31 01:59:15;;;;;;;10.60;3.53;;;13.00;74.70;;;;;;5092441;28;20055;-73
2023/05/31 02:01:41;;;;;;;8.93;3.15;;;12.90;75.10;;;;;;5094013;28;20035;-72
2023/05/31 02:04:07;;;;;;;7.18;3.17;;;12.90;75.20;;;;;;5088677;28;20058;-73
2023/05/31 02:06:36;;;;;;;7.07;3.20;;;12.80;75.20;;;;;;5088964;28;20447;-73
2023/05/31 02:09:04;;;;;;;10.55;2.95;;;12.90;74.90;;;;;;5094214;28;20043;-73
2023/05/31 02:11:29;;;;;;;7.55;3.08;;;12.90;74.50;;;;;;5095897;28;20028;-73
2023/05/31 02:13:55;;;;;;;8.40;3.33;;;13.00;74.20;;;;;;5096800;28;20032;-72
2023/05/31 02:16:20;;;;;;;8.43;3.13;;;13.00;74.20;;;;;;5061587;28;20028;-72
2023/05/31 02:18:46;;;;;;;8.10;3.38;;;13.00;74.20;;;;;;5071677;28;20028;-73
2023/05/31 02:21:12;;;;;;;7.15;3.20;;;12.90;74.20;;;;;;5086770;28;20024;-73
2023/05/31 02:23:37;;;;;;;10.70;3.15;;;12.90;74.00;;;;;;5089314;28;20099;-73
2023/05/31 02:26:04;;;;;;;9.30;3.20;;;12.90;74.00;;;;;;5095890;28;20028;-73
2023/05/31 02:28:29;;;;;;;8.45;3.22;;;12.90;73.60;;;;;;5095480;28;20016;-72
2023/05/31 02:30:56;;;;;;;9.45;3.00;;;12.80;74.10;;;;;;5096600;28;20020;-72
2023/05/31 02:33:22;;;;;;;8.88;3.50;;;12.80;73.80;;;;;;5094550;28;20028;-72
2023/05/31 02:35:48;;;;;;;7.25;3.30;;;12.80;73.50;;;;;;5072444;28;20048;-73
2023/05/31 02:38:14;;;;;;;11.05;3.10;;;12.80;73.10;;;;;;5093468;28;20045;-73
2023/05/31 02:40:40;;;;;;;6.47;2.60;;;12.80;73.00;;;;;;5072931;28;20024;-73
2023/05/31 02:43:05;;;;;;;6.93;3.10;;;12.80;73.00;;;;;;5095417;28;20404;-72
2023/05/31 02:45:31;;;;;;;6.40;2.70;;;12.80;72.90;;;;;;5105629;28;20024;-72
2023/05/31 02:47:56;;;;;;;10.48;2.90;;;12.80;72.80;;;;;;5093538;28;20024;-72
2023/05/31 02:50:22;;;;;;;6.57;2.75;;;12.70;72.80;;;;;;5095328;28;20031;-73
2023/05/31 02:52:47;;;;;;;8.48;2.85;;;12.70;73.10;;;;;;5095441;28;20028;-73
2023/05/31 02:55:13;;;;;;;7.78;3.17;;;12.60;73.20;;;;;;5075302;28;20013;-73
2023/05/31 02:57:38;;;;;;;11.88;3.60;;;12.60;73.20;;;;;;5080499;28;20115;-72
2023/05/31 03:00:13;;;;;;;7.30;3.20;;;12.60;73.10;;;;;;5096067;28;20039;-72
2023/05/31 03:02:40;;;;;;;8.90;3.00;;;12.60;73.00;;;;;;5095021;28;20033;-72
2023/05/31 03:05:11;;;;;;;8.32;3.05;;;12.60;73.10;;;;;;5094774;28;20328;-72
2023/05/31 03:07:37;;;;;;;6.93;3.03;;;12.60;73.00;;;;;;5090602;28;20089;-71
2023/05/31 03:10:05;;;;;;;7.80;3.08;;;12.60;72.70;;;;;;5078943;28;20083;-74
2023/05/31 03:12:31;;;;;;;7.00;2.88;;;12.70;72.60;;;;;;5075013;28;20371;-73
2023/05/31 03:14:57;;;;;;;11.32;3.33;;;12.70;72.90;;;;;;5078531;28;20025;-73
2023/05/31 03:17:22;;;;;;;10.98;2.90;;;12.60;72.80;;;;;;5082527;28;20029;-73
2023/05/31 03:19:48;;;;;;;10.45;3.13;;;12.60;72.80;;;;;;5076221;28;20152;-73
2023/05/31 03:22:13;;;;;;;7.28;2.92;;;12.60;72.70;;;;;;5076334;28;20033;-73
2023/05/31 03:24:40;;;;;;;6.65;3.03;;;12.60;73.00;;;;;;5057239;28;20035;-73
2023/05/31 03:27:06;;;;;;;8.50;3.03;;;12.60;73.10;;;;;;5079860;28;20108;-73
2023/05/31 03:29:31;;;;;;;9.55;3.33;;;12.50;73.20;;;;;;5063526;28;20111;-72
2023/05/31 03:31:57;;;;;;;9.27;3.30;;;12.50;72.90;;;;;;5091733;28;20411;-73
2023/05/31 03:34:25;;;;;;;11.02;3.72;;;12.60;72.80;;;;;;5096312;28;20024;-73
2023/05/31 03:36:51;;;;;;;6.32;2.90;;;12.60;73.00;;;;;;5096004;28;20048;-73
2023/05/31 03:39:17;;;;;;;7.05;3.25;;;12.60;73.10;;;;;;5093134;28;20040;-72
2023/05/31 03:41:42;;;;;;;7.05;3.13;;;12.60;73.30;;;;;;5086236;28;20103;-73
2023/05/31 03:44:08;;;;;;;6.13;3.15;;;12.60;73.20;;;;;;5083687;28;20111;-73
2023/05/31 03:46:33;;;;;;;8.77;2.70;;;12.60;73.20;;;;;;5065627;28;20032;-73
2023/05/31 03:48:59;;;;;;;7.95;2.90;;;12.60;73.50;;;;;;5081199;28;20021;-72
2023/05/31 03:51:25;;;;;;;6.57;3.08;;;12.60;73.80;;;;;;5086357;28;20042;-73
2023/05/31 03:53:50;;;;;;;10.50;3.03;;;12.60;73.70;;;;;;5086649;28;20028;-72
2023/05/31 03:56:16;;;;;;;7.53;2.90;;;12.60;74.20;;;;;;5085056;28;20096;-72
2023/05/31 03:58:41;;;;;;;12.30;3.20;;;12.60;73.90;;;;;;5094985;28;20032;-73
2023/05/31 04:01:07;;;;;;;10.05;3.45;;;12.60;74.10;;;;;;5093417;28;20095;-72
2023/05/31 04:03:32;;;;;;;7.43;3.00;;;12.60;74.20;;;;;;5093783;28;20441;-73
2023/05/31 04:05:58;;;;;;;8.05;3.17;;;12.60;74.40;;;;;;5094115;28;20036;-72
2023/05/31 04:08:23;;;;;;;10.23;3.03;;;12.60;74.70;;;;;;5094375;28;20029;-73
2023/05/31 04:10:49;;;;;;;9.52;3.20;;;12.60;74.50;;;;;;5088579;28;20028;-73
2023/05/31 04:13:14;;;;;;;7.95;2.90;;;12.60;74.80;;;;;;5098838;28;20027;-73
2023/05/31 04:15:40;;;;;;;6.95;3.10;;;12.60;74.70;;;;;;5085484;28;20021;-72
2023/05/31 04:18:06;;;;;;;8.55;2.85;;;12.60;74.90;;;;;;5084077;28;20136;-72
2023/05/31 04:20:31;;;;;;;7.03;3.05;;;12.60;74.80;;;;;;5098443;28;20024;-72
2023/05/31 04:22:57;;;;;;;12.02;2.90;;;12.60;75.10;;;;;;5099881;28;20020;-72
2023/05/31 04:25:22;;;;;;;8.48;3.15;;;12.70;74.70;;;;;;5096857;28;20070;-73
2023/05/31 04:27:49;;;;;;;12.38;3.13;;;12.70;74.70;;;;;;5077137;28;20032;-73
2023/05/31 04:30:15;;;;;;;7.78;3.10;;;12.80;74.90;;;;;;5096241;28;20089;-73
2023/05/31 04:32:40;;;;;;;6.95;3.13;;;12.80;74.90;;;;;;5089219;28;20402;-72
2023/05/31 04:35:08;;;;;;;6.53;3.17;;;12.90;74.40;;;;;;5091864;28;20028;-73
2023/05/31 04:37:34;;;;;;;8.98;3.10;;;12.90;74.60;;;;;;5087161;28;20445;-72
2023/05/31 04:40:00;;;;;;;8.63;3.20;;;13.00;74.50;;;;;;5096208;28;20039;-73
2023/05/31 04:42:26;;;;;;;8.40;3.10;;;13.00;74.30;;;;;;5080525;28;20055;-73
2023/05/31 04:45:01;;;;;;;7.78;3.08;;;13.10;74.00;;;;;;5098254;28;20115;-72
2023/05/31 04:47:32;;;;;;;9.70;2.80;;;13.10;74.00;;;;;;5085978;28;21387;-72
2023/05/31 04:49:58;;;;;;;7.45;2.60;;;13.10;75.00;;;;;;5068499;28;20032;-72
2023/05/31 04:52:28;;;;;;;9.80;3.20;;;13.20;74.10;;;;;;5082118;28;20024;-73
2023/05/31 04:54:55;;;;;;;7.90;2.80;;;13.30;74.20;;;;;;5090972;28;20032;-73
2023/05/31 04:57:22;;;;;;;8.00;2.90;;;13.30;74.50;;;;;;5088426;28;20024;-73
2023/05/31 04:59:47;;;;;;;7.68;2.50;;;13.30;74.30;;;;;;5094060;28;20119;-72
2023/05/31 05:02:13;;;;;;;12.77;3.22;;;13.30;74.50;;;;;;5097672;28;20103;-72
2023/05/31 05:04:38;;;;;;;8.07;3.10;;;13.30;74.60;;;;;;5078502;28;20032;-72
2023/05/31 05:07:05;;;;;;;8.80;3.05;;;13.30;74.80;;;;;;5098051;28;20028;-72
2023/05/31 05:09:30;;;;;;;10.07;3.08;;;13.40;75.10;;;;;;5077564;28;20028;-72
2023/05/31 05:11:56;;;;;;;9.40;3.17;;;13.40;74.70;;;;;;5095429;28;20034;-72
2023/05/31 05:14:22;;;;;;;12.80;3.20;;;13.40;74.40;;;;;;5096282;28;20028;-72
2023/05/31 05:16:47;;;;;;;8.98;3.35;;;13.40;75.10;;;;;;5097785;28;20043;-72
2023/05/31 05:19:13;;;;;;;8.20;3.40;;;13.50;75.50;;;;;;5116188;28;20321;-73
2023/05/31 05:21:39;;;;;;;9.35;3.22;;;13.50;74.70;;;;;;5114629;28;20028;-73
2023/05/31 05:24:05;;;;;;;10.27;2.83;;;13.60;74.60;;;;;;5097533;28;20020;-73
2023/05/31 05:26:31;;;;;;;12.10;3.17;;;13.70;74.30;;;;;;5086481;28;20028;-72
2023/05/31 05:28:56;;;;;;;8.02;3.05;;;13.80;73.70;;;;;;5078251;28;20085;-73
2023/05/31 05:31:22;;;;;;;7.13;2.88;;;13.90;73.90;;;;;;5083381;28;20021;-72
2023/05/31 05:33:50;;;;;;;10.90;3.25;;;13.90;74.40;;;;;;5073911;28;20028;-72
2023/05/31 05:36:15;;;;;;;7.75;3.35;;;13.90;73.70;;;;;;5092944;28;20440;-72
2023/05/31 05:38:41;;;;;;;6.78;3.28;;;14.00;74.10;;;;;;5079789;28;20036;-72
2023/05/31 05:41:12;;;;;;;8.52;3.10;;;14.10;73.70;;;;;;5078042;28;20059;-72
2023/05/31 05:43:39;;;;;;;12.30;3.33;;;14.20;73.90;;;;;;5083161;28;20044;-73
2023/05/31 05:46:05;;;;;;;6.80;3.25;;;14.30;73.80;;;;;;5077962;28;20017;-73
2023/05/31 05:48:31;;;;;;;8.93;3.08;;;14.30;75.20;;;;;;5091392;28;20024;-73
2023/05/31 05:50:57;;;;;;;8.40;3.30;;;14.40;74.00;;;;;;5093101;28;20182;-73
2023/05/31 05:53:23;;;;;;;8.18;3.08;;;14.50;73.80;;;;;;5086222;28;20496;-73
2023/05/31 05:55:50;;;;;;;7.20;3.45;;;14.60;74.30;;;;;;5084560;28;20101;-72
2023/05/31 05:58:16;;;;;;;7.57;3.08;;;14.70;74.20;;;;;;5097971;28;20048;-72
2023/05/31 06:00:44;;;;;;;6.78;3.20;;;14.80;75.20;;;;;;5102636;28;20417;-72
2023/05/31 06:03:10;;;;;;;7.22;2.90;;;14.70;77.20;;;;;;5086476;28;20032;-72
2023/05/31 06:05:36;;;;;;;7.68;3.10;;;14.60;75.80;;;;;;5093322;28;20107;-73
2023/05/31 06:08:02;;;;;;;11.98;3.53;;;14.70;77.40;;;;;;5083508;28;20107;-73
2023/05/31 06:10:28;;;;;;;9.98;3.08;;;14.70;77.30;;;;;;5093394;28;20056;-73
2023/05/31 06:12:54;;;;;;;9.75;3.03;;;14.80;76.40;;;;;;5093797;28;20024;-73
2023/05/31 06:15:19;;;;;;;7.95;3.22;;;14.90;77.40;;;;;;5094844;28;20409;-73
2023/05/31 06:17:48;;;;;;;7.72;3.28;;;14.90;76.10;;;;;;5066625;28;20040;-73
2023/05/31 06:20:15;;;;;;;7.53;3.20;;;15.00;77.60;;;;;;5092193;28;20052;-73
2023/05/31 06:22:41;;;;;;;8.07;3.50;;;15.10;77.30;;;;;;5088028;28;20035;-73
2023/05/31 06:25:07;;;;;;;10.38;3.00;;;15.20;77.00;;;;;;5088148;28;20028;-73
2023/05/31 06:27:33;;;;;;;8.20;3.05;;;15.30;78.30;;;;;;5071680;28;20414;-73
2023/05/31 06:30:00;;;;;;;13.25;4.00;;;15.50;76.80;;;;;;5093908;28;20024;-73
2023/05/31 06:32:26;;;;;;;14.35;2.90;;;15.70;75.50;;;;;;5086934;28;20024;-72
2023/05/31 06:34:52;;;;;;;10.10;3.10;;;16.00;73.80;;;;;;5088348;28;20028;-73
2023/05/31 06:37:18;;;;;;;11.70;3.63;;;16.30;74.20;;;;;;5091849;28;20123;-73
2023/05/31 06:39:44;;;;;;;10.10;3.03;;;16.50;72.70;;;;;;5087145;28;20172;-73
2023/05/31 06:42:11;;;;;;;9.93;3.25;;;16.60;74.00;;;;;;5091291;28;20336;-73
2023/05/31 06:44:37;;;;;;;9.90;3.58;;;16.80;72.80;;;;;;5091000;28;20020;-73
2023/05/31 06:47:03;;;;;;;7.28;2.58;;;16.90;72.80;;;;;;5068331;28;20039;-73
2023/05/31 06:49:28;;;;;;;8.13;3.10;;;16.90;73.90;;;;;;5094642;28;20090;-73
2023/05/31 06:51:54;;;;;;;7.88;2.92;;;16.70;73.40;;;;;;5087606;28;20028;-73
2023/05/31 06:54:19;;;;;;;5.90;2.65;;;16.70;75.10;;;;;;5095610;28;20486;-74
2023/05/31 06:56:45;;;;;;;8.75;3.20;;;16.70;75.20;;;;;;5096247;28;20293;-74
2023/05/31 06:59:10;;;;;;;8.82;3.53;;;16.80;74.30;;;;;;5096742;28;20065;-73
2023/05/31 07:01:36;;;;;;;8.98;3.13;;;17.10;75.50;;;;;;5083357;28;20082;-73
2023/05/31 07:04:02;;;;;;;8.57;3.42;;;17.20;73.80;;;;;;5076449;28;20024;-73
2023/05/31 07:06:28;;;;;;;11.75;3.30;;;17.40;72.40;;;;;;5079231;28;20111;-73
2023/05/31 07:08:53;;;;;;;7.47;3.30;;;17.60;73.00;;;;;;5091320;28;20050;-73
2023/05/31 07:11:21;;;;;;;9.88;3.08;;;17.90;71.40;;;;;;5086932;28;20024;-73
2023/05/31 07:13:48;;;;;;;6.97;3.00;;;18.10;70.80;;;;;;5081642;28;20088;-72
2023/05/31 07:16:13;;;;;;;9.55;3.55;;;18.20;71.20;;;;;;5100363;28;20115;-72
2023/05/31 07:18:39;;;;;;;8.65;3.63;;;18.30;70.60;;;;;;5116964;28;20056;-73
2023/05/31 07:21:05;;;;;;;7.78;3.30;;;18.50;69.60;;;;;;5096561;28;20379;-74
2023/05/31 07:23:30;;;;;;;7.38;3.20;;;18.60;70.20;;;;;;5094396;28;20408;-73
2023/05/31 07:26:00;;;;;;;6.78;3.00;;;18.80;69.70;;;;;;5095161;28;20085;-73
2023/05/31 07:28:26;;;;;;;8.35;3.13;;;19.30;68.30;;;;;;5095672;28;20061;-74
2023/05/31 07:30:51;;;;;;;12.40;3.30;;;19.80;69.20;;;;;;5089137;28;20028;-72
2023/05/31 07:33:17;;;;;;;9.15;3.20;;;20.40;67.60;;;;;;5091872;28;20020;-74
2023/05/31 07:35:43;;;;;;;12.38;3.80;;;20.60;65.70;;;;;;5096037;28;20056;-74
2023/05/31 07:38:09;;;;;;;6.35;2.83;;;20.90;65.00;;;;;;5094744;28;20421;-73
2023/05/31 07:40:35;;;;;;;7.75;3.50;;;21.00;65.20;;;;;;5088256;28;20097;-73
2023/05/31 07:43:00;;;;;;;10.35;3.33;;;21.20;64.10;;;;;;5086191;28;20143;-72
2023/05/31 07:45:26;;;;;;;8.00;3.05;;;21.50;65.10;;;;;;5114427;28;20043;-72
2023/05/31 07:47:52;;;;;;;11.00;4.20;;;21.90;63.20;;;;;;5084263;28;21032;-73
2023/05/31 07:50:18;;;;;;;8.90;3.47;;;22.10;63.40;;;;;;5093234;28;20329;-74
2023/05/31 07:52:46;;;;;;;9.63;3.40;;;22.10;62.60;;;;;;5096012;28;20405;-74
2023/05/31 07:55:12;;;;;;;7.70;3.15;;;21.60;63.50;;;;;;5094717;28;20024;-74
2023/05/31 07:57:38;;;;;;;7.05;3.47;;;21.80;64.50;;;;;;5095099;28;20028;-74
2023/05/31 08:00:05;;;;;;;9.85;3.50;;;22.20;62.40;;;;;;5095250;28;20077;-74
2023/05/31 08:02:32;;;;;;;8.80;3.10;;;22.40;62.90;;;;;;5071487;28;21510;-73
2023/05/31 08:05:01;;;;;;;7.95;3.10;;;22.60;63.60;;;;;;5085542;28;20090;-74
2023/05/31 08:07:27;;;;;;;10.05;3.30;;;23.00;61.90;;;;;;5085064;28;20401;-72
2023/05/31 08:09:53;;;;;;;9.73;3.60;;;23.60;60.50;;;;;;5077363;28;20028;-74
2023/05/31 08:12:19;;;;;;;10.38;3.20;;;23.50;60.50;;;;;;5077004;28;20398;-74
2023/05/31 08:14:44;;;;;;;7.88;3.30;;;23.20;60.90;;;;;;5089599;28;20025;-73
2023/05/31 08:17:10;;;;;;;7.40;3.35;;;23.20;59.60;;;;;;5091371;28;20310;-74
2023/05/31 08:19:36;;;;;;;5.70;2.72;;;22.50;60.40;;;;;;5083256;28;20032;-74
2023/05/31 08:22:01;;;;;;;6.40;3.10;;;22.60;62.00;;;;;;5087313;28;20052;-74
2023/05/31 08:24:28;;;;;;;7.05;3.03;;;23.10;62.40;;;;;;5085683;28;20070;-74
2023/05/31 08:26:53;;;;;;;8.82;3.25;;;23.70;60.70;;;;;;5092333;28;20078;-74
2023/05/31 08:29:19;;;;;;;7.82;3.38;;;23.80;59.90;;;;;;5095742;28;20028;-74
2023/05/31 08:31:53;;;;;;;6.38;2.80;;;23.90;58.30;;;;;;5061449;28;20032;-74
2023/05/31 08:34:19;;;;;;;6.43;2.78;;;23.80;58.30;;;;;;5081517;28;20020;-73
2023/05/31 08:36:48;;;;;;;9.95;2.95;;;24.10;58.40;;;;;;5100300;28;20052;-74
2023/05/31 08:39:14;;;;;;;8.35;3.28;;;24.10;58.20;;;;;;5094505;28;20835;-73
2023/05/31 08:42:16;;;;;;;8.80;2.95;;;24.40;58.10;;;;;;5093893;28;20029;-73
2023/05/31 08:44:42;;;;;;;10.02;3.28;;;24.90;57.20;;;;;;5075345;28;20028;-72
2023/05/31 08:47:25;;;;;;;9.95;3.55;;;24.60;57.90;;;;;;5095376;28;20035;-73
2023/05/31 08:49:54;;;;;;;8.30;3.20;;;24.40;56.30;;;;;;5074265;28;20028;-71
2023/05/31 08:52:20;;;;;;;12.80;3.30;;;24.10;57.60;;;;;;5095524;28;20122;-71
2023/05/31 08:54:49;;;;;;;7.53;3.00;;;24.30;57.10;;;;;;5076874;28;20061;-71
2023/05/31 08:57:15;;;;;;;8.30;3.28;;;25.10;57.10;;;;;;5090554;28;20021;-71
2023/05/31 08:59:43;;;;;;;9.23;3.65;;;25.10;56.30;;;;;;5063887;28;20028;-73
2023/05/31 09:02:10;;;;;;;12.60;3.28;;;25.40;55.40;;;;;;5081170;28;20031;-72
2023/05/31 09:04:37;;;;;;;6.53;3.55;;;25.50;56.10;;;;;;5099096;28;20012;-72
2023/05/31 09:07:03;;;;;;;8.48;3.20;;;25.90;56.00;;;;;;5081037;28;20031;-72
2023/05/31 09:09:28;;;;;;;5.57;2.90;;;25.80;54.00;;;;;;5079930;28;20425;-72
2023/05/31 09:11:54;;;;;;;6.75;2.90;;;25.40;55.00;;;;;;5072622;28;20024;-72
2023/05/31 09:14:22;;;;;;;10.52;3.30;;;25.30;55.50;;;;;;5080520;28;20027;-73
2023/05/31 09:16:50;;;;;;;9.00;3.47;;;25.30;55.90;;;;;;5081073;28;20024;-72
2023/05/31 09:19:16;;;;;;;9.25;3.00;;;25.30;55.00;;;;;;5098640;28;20046;-75
2023/05/31 09:21:44;;;;;;;7.57;2.97;;;25.20;56.10;;;;;;5097220;28;20103;-72
2023/05/31 09:24:10;;;;;;;7.65;2.50;;;24.80;56.40;;;;;;5071437;28;20047;-72
2023/05/31 09:26:46;;;;;;;9.80;2.95;;;25.10;53.90;;;;;;5093621;28;20059;-72
2023/05/31 09:29:12;;;;;;;10.18;2.88;;;25.50;54.90;;;;;;5092656;28;20016;-72
2023/05/31 09:31:37;;;;;;;7.88;3.10;;;25.60;54.10;;;;;;5086910;28;20473;-72
2023/05/31 09:34:22;;;;;;;13.48;3.25;;;25.80;53.20;;;;;;5094903;28;20028;-73
2023/05/31 09:36:51;;;;;;;8.70;3.28;;;25.60;52.60;;;;;;5084936;28;20039;-72
2023/05/31 09:39:16;;;;;;;8.55;2.80;;;25.10;53.70;;;;;;5117514;28;20016;-72
2023/05/31 09:41:42;;;;;;;5.85;2.63;;;25.20;54.70;;;;;;5106492;28;20051;-72
2023/05/31 09:44:08;;;;;;;6.53;2.75;;;25.80;55.80;;;;;;5096033;28;20032;-73
2023/05/31 09:46:34;;;;;;;8.57;2.92;;;26.30;53.00;;;;;;5079660;28;20410;-75
2023/05/31 09:49:01;;;;;;;6.93;2.90;;;26.40;52.80;;;;;;5077861;28;20036;-73
2023/05/31 09:51:27;;;;;;;8.00;3.05;;;26.70;53.10;;;;;;5077805;28;20020;-73
2023/05/31 09:53:55;;;;;;;7.25;2.60;;;26.50;53.00;;;;;;5095071;28;20020;-73
2023/05/31 09:56:22;;;;;;;8.80;2.70;;;26.50;52.10;;;;;;5090778;28;20036;-73
2023/05/31 09:58:52;;;;;;;7.40;2.92;;;26.70;53.40;;;;;;5095526;28;20032;-73
2023/05/31 10:01:19;;;;;;;6.32;2.72;;;27.00;51.10;;;;;;5090364;28;20107;-72
2023/05/31 10:03:47;;;;;;;6.57;2.92;;;27.30;51.60;;;;;;5097701;28;20020;-72
2023/05/31 10:06:16;;;;;;;5.35;2.38;;;27.70;52.20;;;;;;5075822;28;20389;-72
2023/05/31 10:08:46;;;;;;;6.97;2.70;;;28.20;51.60;;;;;;5090729;28;20730;-72
2023/05/31 10:11:17;;;;;;;9.27;3.42;;;28.20;51.70;;;;;;5057866;28;20036;-72
2023/05/31 10:13:45;;;;;;;9.25;2.97;;;27.60;48.90;;;;;;5078983;28;21518;-73
2023/05/31 10:16:14;;;;;;;7.95;2.78;;;26.50;50.40;;;;;;5079890;28;20033;-73
2023/05/31 10:18:45;;;;;;;7.35;2.50;;;26.40;50.00;;;;;;5096642;28;20035;-74
2023/05/31 10:21:24;;;;;;;9.90;2.58;;;26.60;50.50;;;;;;5076400;28;20441;-73
2023/05/31 10:24:15;;;;;;;6.65;2.63;;;26.90;51.30;;;;;;5094834;28;20045;-72
2023/05/31 10:26:54;;;;;;;7.80;2.70;;;27.10;51.10;;;;;;5097477;28;20027;-73
2023/05/31 10:29:28;;;;;;;7.70;2.80;;;27.00;50.00;;;;;;5097425;28;20059;-73
2023/05/31 10:32:00;;;;;;;8.00;2.63;;;26.80;50.00;;;;;;5084564;28;20360;-74
2023/05/31 10:34:28;;;;;;;6.30;2.75;;;26.80;49.80;;;;;;5076372;28;20024;-74
2023/05/31 10:36:54;;;;;;;7.28;2.80;;;26.50;49.00;;;;;;5078567;28;20066;-73
2023/05/31 10:39:49;;;;;;;9.82;3.28;;;26.70;50.40;;;;;;5077409;28;20417;-72
2023/05/31 10:42:43;;;;;;;12.23;2.72;;;27.10;51.30;;;;;;5096375;28;20355;-72
2023/05/31 10:45:18;;;;;;;6.28;2.55;;;27.30;49.90;;;;;;5097263;28;20435;-72
2023/05/31 10:47:57;;;;;;;7.40;2.83;;;27.20;49.30;;;;;;5078965;28;20035;-73
2023/05/31 10:50:23;;;;;;;7.40;2.53;;;27.30;50.10;;;;;;5096167;28;20024;-73
2023/05/31 10:53:11;;;;;;;6.97;2.70;;;26.80;49.20;;;;;;5097165;28;20024;-72
2023/05/31 10:55:45;;;;;;;7.82;2.60;;;26.50;51.80;;;;;;5076475;28;20016;-72
2023/05/31 10:58:38;;;;;;;9.15;3.35;;;26.90;52.30;;;;;;5076458;28;20325;-72
2023/05/31 11:01:05;;;;;;;6.65;2.70;;;26.80;48.90;;;;;;5058842;28;20089;-72
2023/05/31 11:03:33;;;;;;;9.63;2.70;;;26.70;51.90;;;;;;5082485;28;20101;-73
2023/05/31 11:06:01;;;;;;;6.78;2.67;;;27.00;49.80;;;;;;5077815;28;20036;-73
2023/05/31 11:08:27;;;;;;;7.45;2.83;;;26.60;49.50;;;;;;5083421;28;20035;-72
2023/05/31 11:11:44;;;;;;;6.68;2.15;;;26.90;49.30;;;;;;5074655;28;20109;-72
2023/05/31 11:14:16;;;;;;;6.63;2.80;;;26.80;49.80;;;;;;5082578;28;20099;-73
2023/05/31 11:16:47;;;;;;;7.05;2.75;;;26.80;49.80;;;;;;5077859;28;20051;-73
2023/05/31 11:19:21;;;;;;;10.45;2.78;;;27.00;50.90;;;;;;5087222;28;20027;-80
2023/05/31 11:21:57;;;;;;;9.50;3.05;;;26.80;51.10;;;;;;5064648;28;20040;-78
2023/05/31 11:24:30;;;;;;;7.95;3.22;;;24.90;58.40;;;;;;5061726;28;20425;-73
2023/05/31 11:27:00;;;;;;;7.93;2.78;;;22.50;61.20;;;;;;5075916;28;20032;-73
2023/05/31 11:29:51;;;;;;;8.27;2.85;;;21.40;65.70;;;;;;5095540;28;20032;-73
2023/05/31 11:32:44;;;;;;;10.82;3.55;;;21.60;64.00;;;;;;5063025;28;20032;-74
2023/05/31 11:35:14;;;;;;;7.00;2.60;;;22.20;64.70;;;;;;5080311;28;20184;-74
2023/05/31 11:37:42;;;;;;;6.50;2.65;;;23.40;59.50;;;;;;5092404;28;20046;-73
2023/05/31 11:40:11;;;;;;;8.43;3.00;;;24.40;57.80;;;;;;5089547;28;20054;-74
2023/05/31 11:42:41;;;;;;;6.00;2.72;;;25.30;55.80;;;;;;5093605;28;20024;-72
2023/05/31 11:45:09;;;;;;;6.70;2.47;;;25.80;53.10;;;;;;5086024;28;20050;-72
2023/05/31 11:47:59;;;;;;;10.23;3.08;;;26.10;54.10;;;;;;5093312;28;20291;-72
2023/05/31 11:50:28;;;;;;;7.07;2.63;;;25.90;51.60;;;;;;5095153;28;20355;-72
2023/05/31 11:53:05;;;;;;;7.90;3.03;;;25.50;54.00;;;;;;5091726;28;20374;-72
2023/05/31 11:55:37;;;;;;;7.03;2.40;;;26.00;54.30;;;;;;5083707;28;20028;-73
2023/05/31 11:58:08;;;;;;;8.85;2.35;;;26.10;51.40;;;;;;5093697;28;20052;-73
2023/05/31 12:00:34;;;;;;;9.55;2.60;;;26.00;51.20;;;;;;5088924;28;20028;-73
2023/05/31 12:03:04;;;;;;;6.75;2.65;;;25.70;50.50;;;;;;5095074;28;20034;-73
2023/05/31 12:05:30;;;;;;;12.82;3.05;;;25.60;54.40;;;;;;5094556;28;20024;-73
2023/05/31 12:07:57;;;;;;;8.25;2.50;;;25.90;51.70;;;;;;5092229;28;20077;-73
2023/05/31 12:10:31;;;;;;;6.50;2.60;;;25.80;52.30;;;;;;5080840;28;20031;-73
2023/05/31 12:12:58;;;;;;;6.70;2.40;;;25.90;52.30;;;;;;5095935;28;20051;-73
2023/05/31 12:15:25;;;;;;;10.30;2.70;;;26.50;52.20;;;;;;5087827;28;20012;-73
2023/05/31 12:17:51;;;;;;;6.10;2.33;;;27.30;50.90;;;;;;5077993;28;20020;-73
2023/05/31 12:20:17;;;;;;;7.53;2.67;;;27.40;49.60;;;;;;5068236;28;20020;-72
2023/05/31 12:22:42;;;;;;;8.15;2.47;;;26.80;49.50;;;;;;5090330;28;20321;-72
2023/05/31 12:25:08;;;;;;;8.63;2.33;;;27.10;50.40;;;;;;5079952;28;20103;-72
2023/05/31 12:27:34;;;;;;;7.85;2.47;;;27.70;51.50;;;;;;5079948;28;20028;-72
2023/05/31 12:30:01;;;;;;;8.38;2.60;;;28.30;49.90;;;;;;5086313;28;20024;-72
2023/05/31 12:32:28;;;;;;;5.60;2.38;;;28.50;47.90;;;;;;5097631;28;20322;-73
2023/05/31 12:35:07;;;;;;;9.90;2.70;;;28.20;46.50;;;;;;5066263;28;20329;-72
2023/05/31 12:37:35;;;;;;;7.72;2.38;;;28.40;46.60;;;;;;5094975;28;20044;-73
2023/05/31 12:40:15;;;;;;;8.40;2.78;;;28.40;48.60;;;;;;5092054;28;20024;-73
2023/05/31 12:42:41;;;;;;;7.20;2.45;;;28.80;49.10;;;;;;5099585;28;20036;-73
2023/05/31 12:45:08;;;;;;;6.13;2.65;;;29.30;45.20;;;;;;5079877;28;20028;-73
2023/05/31 12:47:35;;;;;;;7.45;2.63;;;29.80;46.40;;;;;;5099484;28;20099;-73
2023/05/31 12:50:08;;;;;;;6.72;2.35;;;29.00;44.80;;;;;;5095945;28;20016;-72